EZY25CU LEPA-EGKK
Flight info
| Callsign | EZY25CU |
|---|---|
| Flight time | 2h 0m |
| Altitude | 38000 |
| Route | DRAGO DCT PAPOS DCT UMURE DCT XIKEN DCT KARES DCT ARBEK DCT REBUL DCT USKAR DCT MOPAS DCT GIROM DCT GONUP DCT MANAK DCT TIRAV DCT DIXAD DCT NTS DCT BAKUL DCT REN DCT UPALO DCT REVTU DCT ODREP UP88 VASUX |
| Aircraft | A20N/M-SDE2E3FGHIJ1RWXYZ/LB1 |
Departure
| Time | 2026-05-05 10:12 |
|---|---|
| Airport | Palma de Mallorca Airport (LEPA) |
Arrival
| Time | 2026-05-05 12:12 |
|---|---|
| Airport | London Gatwick Airport (EGKK) |
| Time | Latitude | Longitude | Altitude | Speed | Heading |
|---|---|---|---|---|---|
| 2026-05-05 09:46 | 39.54649 | 2.73443 | 37 ft | 0 kts | 256° |
| 2026-05-05 09:57 | 39.54650 | 2.73448 | 39 ft | 3 kts | 256° |
| 2026-05-05 09:57 | 39.54654 | 2.73472 | 39 ft | 3 kts | 256° |
| 2026-05-05 09:57 | 39.54659 | 2.73495 | 39 ft | 3 kts | 223° |
| 2026-05-05 09:58 | 39.54676 | 2.73507 | 34 ft | 3 kts | 196° |
| 2026-05-05 09:58 | 39.54685 | 2.73508 | 38 ft | 0 kts | 165° |
| 2026-05-05 10:00 | 39.54667 | 2.73500 | 37 ft | 4 kts | 221° |
| 2026-05-05 10:00 | 39.54653 | 2.73457 | 39 ft | 5 kts | 256° |
| 2026-05-05 10:00 | 39.54651 | 2.73449 | 39 ft | 0 kts | 258° |
| 2026-05-05 10:01 | 39.54653 | 2.73459 | 39 ft | 3 kts | 258° |
| 2026-05-05 10:02 | 39.54657 | 2.73483 | 39 ft | 3 kts | 258° |
| 2026-05-05 10:02 | 39.54665 | 2.73503 | 37 ft | 3 kts | 195° |
| 2026-05-05 10:02 | 39.54681 | 2.73505 | 35 ft | 1 kts | 166° |
| 2026-05-05 10:06 | 39.54678 | 2.73507 | 36 ft | 2 kts | 163° |
| 2026-05-05 10:06 | 39.54647 | 2.73530 | 39 ft | 8 kts | 147° |
| 2026-05-05 10:06 | 39.54615 | 2.73609 | 38 ft | 13 kts | 112° |
| 2026-05-05 10:07 | 39.54603 | 2.73731 | 38 ft | 18 kts | 60° |
| 2026-05-05 10:07 | 39.54675 | 2.73886 | 37 ft | 22 kts | 60° |
| 2026-05-05 10:07 | 39.54762 | 2.74069 | 36 ft | 24 kts | 59° |
| 2026-05-05 10:07 | 39.54892 | 2.74073 | 36 ft | 23 kts | 328° |
| 2026-05-05 10:08 | 39.55038 | 2.73957 | 36 ft | 26 kts | 328° |
| 2026-05-05 10:08 | 39.55198 | 2.73831 | 36 ft | 28 kts | 329° |
| 2026-05-05 10:08 | 39.55356 | 2.73708 | 37 ft | 24 kts | 329° |
| 2026-05-05 10:08 | 39.55494 | 2.73598 | 36 ft | 23 kts | 328° |
| 2026-05-05 10:09 | 39.55641 | 2.73509 | 37 ft | 19 kts | 16° |
| 2026-05-05 10:09 | 39.55723 | 2.73651 | 36 ft | 22 kts | 59° |
| 2026-05-05 10:09 | 39.55810 | 2.73826 | 39 ft | 25 kts | 57° |
| 2026-05-05 10:09 | 39.55904 | 2.74027 | 40 ft | 27 kts | 58° |
| 2026-05-05 10:10 | 39.56003 | 2.74218 | 40 ft | 25 kts | 43° |
| 2026-05-05 10:10 | 39.56087 | 2.74295 | 42 ft | 8 kts | 34° |
| 2026-05-05 10:10 | 39.56149 | 2.74349 | 43 ft | 13 kts | 34° |
| 2026-05-05 10:10 | 39.56226 | 2.74346 | 43 ft | 12 kts | 308° |
| 2026-05-05 10:11 | 39.56216 | 2.74233 | 40 ft | 15 kts | 236° |
| 2026-05-05 10:11 | 39.56135 | 2.74065 | 41 ft | 43 kts | 238° |
| 2026-05-05 10:11 | 39.55862 | 2.73492 | 34 ft | 105 kts | 238° |
| 2026-05-05 10:11 | 39.55383 | 2.72480 | 49 ft | 152 kts | 238° |
| 2026-05-05 10:12 | 39.54832 | 2.71284 | 457 ft | 157 kts | 238° |
| 2026-05-05 10:12 | 39.54234 | 2.70050 | 885 ft | 170 kts | 236° |
| 2026-05-05 10:12 | 39.53561 | 2.68733 | 1319 ft | 183 kts | 233° |
| 2026-05-05 10:12 | 39.52831 | 2.67314 | 1852 ft | 195 kts | 235° |
| 2026-05-05 10:13 | 39.52074 | 2.65832 | 2540 ft | 197 kts | 235° |
| 2026-05-05 10:13 | 39.51317 | 2.64347 | 3333 ft | 199 kts | 235° |
| 2026-05-05 10:13 | 39.50535 | 2.62812 | 3923 ft | 213 kts | 235° |
| 2026-05-05 10:13 | 39.49694 | 2.61163 | 4618 ft | 224 kts | 236° |
| 2026-05-05 10:14 | 39.48832 | 2.59470 | 5513 ft | 225 kts | 236° |
| 2026-05-05 10:14 | 39.47967 | 2.57769 | 6419 ft | 228 kts | 237° |
| 2026-05-05 10:14 | 39.47088 | 2.56042 | 7241 ft | 231 kts | 236° |
| 2026-05-05 10:14 | 39.46213 | 2.54324 | 8087 ft | 233 kts | 236° |
| 2026-05-05 10:15 | 39.45380 | 2.52512 | 8886 ft | 238 kts | 245° |
| 2026-05-05 10:15 | 39.45049 | 2.50329 | 9286 ft | 264 kts | 274° |
| 2026-05-05 10:15 | 39.45772 | 2.48070 | 9805 ft | 286 kts | 308° |
| 2026-05-05 10:15 | 39.47306 | 2.46338 | 10363 ft | 303 kts | 320° |
| 2026-05-05 10:16 | 39.49104 | 2.44724 | 10713 ft | 325 kts | 323° |
| 2026-05-05 10:16 | 39.51009 | 2.43058 | 11327 ft | 334 kts | 322° |
| 2026-05-05 10:16 | 39.52940 | 2.41350 | 12176 ft | 337 kts | 321° |
| 2026-05-05 10:16 | 39.54836 | 2.39552 | 13053 ft | 337 kts | 315° |
| 2026-05-05 10:17 | 39.56529 | 2.37461 | 13895 ft | 338 kts | 309° |
| 2026-05-05 10:17 | 39.58164 | 2.35257 | 14655 ft | 340 kts | 308° |
| 2026-05-05 10:17 | 39.59792 | 2.33025 | 15437 ft | 342 kts | 308° |
| 2026-05-05 10:17 | 39.61436 | 2.30768 | 16188 ft | 345 kts | 307° |
| 2026-05-05 10:18 | 39.63093 | 2.28497 | 16957 ft | 348 kts | 307° |
| 2026-05-05 10:18 | 39.64769 | 2.26201 | 17675 ft | 352 kts | 307° |
| 2026-05-05 10:18 | 39.66462 | 2.23882 | 18378 ft | 356 kts | 307° |
| 2026-05-05 10:18 | 39.68174 | 2.21538 | 19008 ft | 359 kts | 307° |
| 2026-05-05 10:19 | 39.69897 | 2.19178 | 19622 ft | 362 kts | 306° |
| 2026-05-05 10:19 | 39.71635 | 2.16794 | 20233 ft | 365 kts | 306° |
| 2026-05-05 10:19 | 39.73387 | 2.14392 | 20848 ft | 368 kts | 306° |
| 2026-05-05 10:19 | 39.75152 | 2.11970 | 21457 ft | 371 kts | 306° |
| 2026-05-05 10:20 | 39.76933 | 2.09523 | 22065 ft | 374 kts | 306° |
| 2026-05-05 10:20 | 39.78727 | 2.07056 | 22679 ft | 377 kts | 306° |
| 2026-05-05 10:20 | 39.80533 | 2.04572 | 23300 ft | 379 kts | 306° |
| 2026-05-05 10:20 | 39.82351 | 2.02068 | 23804 ft | 382 kts | 305° |
| 2026-05-05 10:21 | 39.84181 | 1.99546 | 24279 ft | 385 kts | 305° |
| 2026-05-05 10:21 | 39.86021 | 1.97008 | 24755 ft | 386 kts | 305° |
| 2026-05-05 10:21 | 39.87871 | 1.94455 | 25222 ft | 388 kts | 305° |
| 2026-05-05 10:21 | 39.89729 | 1.91889 | 25677 ft | 390 kts | 304° |
| 2026-05-05 10:22 | 39.91595 | 1.89309 | 26142 ft | 392 kts | 304° |
| 2026-05-05 10:22 | 39.93472 | 1.86710 | 26568 ft | 395 kts | 304° |
| 2026-05-05 10:22 | 39.95355 | 1.84101 | 26990 ft | 397 kts | 304° |
| 2026-05-05 10:22 | 39.97252 | 1.81472 | 27410 ft | 399 kts | 304° |
| 2026-05-05 10:23 | 39.99234 | 1.78902 | 27813 ft | 407 kts | 309° |
| 2026-05-05 10:23 | 40.01519 | 1.76637 | 28205 ft | 420 kts | 318° |
| 2026-05-05 10:23 | 40.04143 | 1.74807 | 28607 ft | 432 kts | 324° |
| 2026-05-05 10:23 | 40.06918 | 1.73212 | 28969 ft | 439 kts | 327° |
| 2026-05-05 10:24 | 40.09771 | 1.71732 | 29345 ft | 443 kts | 328° |
| 2026-05-05 10:24 | 40.12625 | 1.70319 | 29705 ft | 446 kts | 329° |
| 2026-05-05 10:24 | 40.15538 | 1.68890 | 30055 ft | 449 kts | 329° |
| 2026-05-05 10:24 | 40.18499 | 1.67425 | 30353 ft | 450 kts | 328° |
| 2026-05-05 10:25 | 40.21432 | 1.65954 | 30639 ft | 452 kts | 328° |
| 2026-05-05 10:25 | 40.24364 | 1.64465 | 31026 ft | 452 kts | 328° |
| 2026-05-05 10:25 | 40.27244 | 1.62994 | 31490 ft | 449 kts | 328° |
| 2026-05-05 10:25 | 40.30142 | 1.61508 | 31926 ft | 446 kts | 328° |
| 2026-05-05 10:26 | 40.33025 | 1.60021 | 32298 ft | 445 kts | 328° |
| 2026-05-05 10:26 | 40.35902 | 1.58533 | 32651 ft | 444 kts | 327° |
| 2026-05-05 10:26 | 40.38776 | 1.57044 | 33008 ft | 444 kts | 327° |
| 2026-05-05 10:26 | 40.41643 | 1.55557 | 33358 ft | 443 kts | 327° |
| 2026-05-05 10:27 | 40.44506 | 1.54071 | 33704 ft | 442 kts | 327° |
| 2026-05-05 10:27 | 40.47362 | 1.52589 | 34077 ft | 441 kts | 328° |
| 2026-05-05 10:27 | 40.50219 | 1.51105 | 34312 ft | 442 kts | 328° |
| 2026-05-05 10:27 | 40.53077 | 1.49618 | 34546 ft | 442 kts | 328° |
| 2026-05-05 10:28 | 40.55931 | 1.48133 | 34798 ft | 441 kts | 328° |
| 2026-05-05 10:28 | 40.58783 | 1.46649 | 35042 ft | 441 kts | 328° |
| 2026-05-05 10:28 | 40.61634 | 1.45164 | 35274 ft | 441 kts | 328° |
| 2026-05-05 10:28 | 40.64484 | 1.43678 | 35498 ft | 440 kts | 328° |
| 2026-05-05 10:29 | 40.67331 | 1.42192 | 35721 ft | 440 kts | 328° |
| 2026-05-05 10:29 | 40.70179 | 1.40705 | 35940 ft | 440 kts | 328° |
| 2026-05-05 10:29 | 40.73024 | 1.39217 | 36149 ft | 440 kts | 328° |
| 2026-05-05 10:29 | 40.75870 | 1.37727 | 36359 ft | 440 kts | 328° |
| 2026-05-05 10:30 | 40.78713 | 1.36238 | 36557 ft | 440 kts | 328° |
| 2026-05-05 10:30 | 40.81557 | 1.34746 | 36756 ft | 440 kts | 328° |
| 2026-05-05 10:30 | 40.84399 | 1.33255 | 36946 ft | 440 kts | 328° |
| 2026-05-05 10:30 | 40.87239 | 1.31763 | 37140 ft | 439 kts | 328° |
| 2026-05-05 10:31 | 40.90081 | 1.30268 | 37327 ft | 439 kts | 329° |
| 2026-05-05 10:31 | 40.92920 | 1.28773 | 37527 ft | 440 kts | 329° |
| 2026-05-05 10:31 | 40.95762 | 1.27276 | 37663 ft | 440 kts | 329° |
| 2026-05-05 10:31 | 40.98569 | 1.25795 | 37849 ft | 440 kts | 329° |
| 2026-05-05 10:32 | 41.04310 | 1.22762 | 37940 ft | 442 kts | 329° |
| 2026-05-05 10:32 | 41.09966 | 1.19773 | 37938 ft | 440 kts | 329° |
| 2026-05-05 10:33 | 41.15849 | 1.17286 | 37940 ft | 453 kts | 342° |
| 2026-05-05 10:33 | 41.22164 | 1.16293 | 37938 ft | 459 kts | 347° |
| 2026-05-05 10:34 | 41.28547 | 1.15619 | 37941 ft | 461 kts | 348° |
| 2026-05-05 10:34 | 41.34942 | 1.14996 | 37969 ft | 460 kts | 348° |
| 2026-05-05 10:35 | 41.41336 | 1.14350 | 37963 ft | 461 kts | 348° |
| 2026-05-05 10:35 | 41.47724 | 1.13686 | 37942 ft | 460 kts | 348° |
| 2026-05-05 10:36 | 41.54130 | 1.13011 | 37944 ft | 460 kts | 348° |
| 2026-05-05 10:36 | 41.60516 | 1.12334 | 37949 ft | 461 kts | 348° |
| 2026-05-05 10:37 | 41.66915 | 1.11654 | 37954 ft | 462 kts | 348° |
| 2026-05-05 10:37 | 41.73317 | 1.10975 | 37964 ft | 462 kts | 348° |
| 2026-05-05 10:38 | 41.79722 | 1.10294 | 37980 ft | 463 kts | 348° |
| 2026-05-05 10:38 | 41.85075 | 1.09721 | 37979 ft | 465 kts | 348° |
| 2026-05-05 10:39 | 41.91539 | 1.09031 | 37985 ft | 466 kts | 348° |
| 2026-05-05 10:39 | 41.98002 | 1.08342 | 37987 ft | 466 kts | 348° |
| 2026-05-05 10:40 | 42.04473 | 1.07649 | 37980 ft | 467 kts | 349° |
| 2026-05-05 10:40 | 42.10958 | 1.06952 | 37972 ft | 468 kts | 349° |
| 2026-05-05 10:41 | 42.17444 | 1.06254 | 37967 ft | 468 kts | 349° |
| 2026-05-05 10:41 | 42.23932 | 1.05556 | 37942 ft | 467 kts | 349° |
| 2026-05-05 10:42 | 42.33649 | 1.04509 | 37952 ft | 467 kts | 349° |
| 2026-05-05 10:43 | 42.40125 | 1.03808 | 37956 ft | 467 kts | 349° |
| 2026-05-05 10:43 | 42.46600 | 1.03105 | 37939 ft | 466 kts | 349° |
| 2026-05-05 10:44 | 42.53052 | 1.02404 | 37941 ft | 466 kts | 349° |
| 2026-05-05 10:44 | 42.59512 | 1.01698 | 37947 ft | 466 kts | 349° |
| 2026-05-05 10:45 | 42.65973 | 1.00990 | 37948 ft | 465 kts | 349° |
| 2026-05-05 10:45 | 42.72422 | 1.00283 | 37947 ft | 465 kts | 349° |
| 2026-05-05 10:46 | 42.78807 | 0.99156 | 37952 ft | 460 kts | 342° |
| 2026-05-05 10:46 | 42.85020 | 0.97185 | 37950 ft | 457 kts | 340° |
| 2026-05-05 10:47 | 42.91187 | 0.95058 | 37945 ft | 457 kts | 339° |
| 2026-05-05 10:47 | 42.97362 | 0.92897 | 37948 ft | 458 kts | 340° |
| 2026-05-05 10:48 | 43.03535 | 0.90747 | 37982 ft | 458 kts | 340° |
| 2026-05-05 10:48 | 43.09692 | 0.88611 | 37963 ft | 456 kts | 340° |
| 2026-05-05 10:49 | 43.15843 | 0.86474 | 37971 ft | 456 kts | 340° |
| 2026-05-05 10:49 | 43.21991 | 0.84333 | 37970 ft | 456 kts | 340° |
| 2026-05-05 10:50 | 43.28139 | 0.82186 | 37971 ft | 456 kts | 340° |
| 2026-05-05 10:50 | 43.34292 | 0.80035 | 37973 ft | 456 kts | 340° |
| 2026-05-05 10:51 | 43.40445 | 0.77879 | 37967 ft | 456 kts | 340° |
| 2026-05-05 10:51 | 43.46523 | 0.75479 | 37981 ft | 452 kts | 334° |
| 2026-05-05 10:52 | 43.52348 | 0.72255 | 37971 ft | 451 kts | 332° |
| 2026-05-05 10:52 | 43.58112 | 0.68871 | 37972 ft | 450 kts | 332° |
| 2026-05-05 10:53 | 43.63867 | 0.65449 | 37979 ft | 450 kts | 332° |
| 2026-05-05 10:53 | 43.69582 | 0.62057 | 37971 ft | 450 kts | 332° |
| 2026-05-05 10:54 | 43.75335 | 0.58646 | 37969 ft | 450 kts | 332° |
| 2026-05-05 10:54 | 43.81093 | 0.55229 | 37969 ft | 450 kts | 332° |
| 2026-05-05 10:55 | 43.86852 | 0.51804 | 37970 ft | 450 kts | 333° |
| 2026-05-05 10:55 | 43.92598 | 0.48380 | 37965 ft | 450 kts | 333° |
| 2026-05-05 10:56 | 43.98344 | 0.44948 | 37966 ft | 450 kts | 333° |
| 2026-05-05 10:56 | 44.04090 | 0.41508 | 37972 ft | 450 kts | 333° |
| 2026-05-05 10:57 | 44.09839 | 0.38059 | 37977 ft | 450 kts | 333° |
| 2026-05-05 10:57 | 44.15596 | 0.34598 | 37957 ft | 451 kts | 333° |
| 2026-05-05 10:58 | 44.21350 | 0.31132 | 37958 ft | 451 kts | 333° |
| 2026-05-05 10:58 | 44.27105 | 0.27658 | 37961 ft | 451 kts | 333° |
| 2026-05-05 10:59 | 44.32876 | 0.24166 | 37955 ft | 452 kts | 333° |
| 2026-05-05 10:59 | 44.38646 | 0.20668 | 37956 ft | 452 kts | 333° |
| 2026-05-05 11:00 | 44.44037 | 0.17393 | 37958 ft | 452 kts | 333° |
| 2026-05-05 11:00 | 44.49569 | 0.14025 | 37957 ft | 453 kts | 333° |
| 2026-05-05 11:01 | 44.55343 | 0.10503 | 37957 ft | 453 kts | 333° |
| 2026-05-05 11:01 | 44.61117 | 0.06972 | 37954 ft | 453 kts | 333° |
| 2026-05-05 11:02 | 44.66891 | 0.03434 | 37953 ft | 453 kts | 333° |
| 2026-05-05 11:02 | 44.72666 | -0.00113 | 37951 ft | 453 kts | 333° |
| 2026-05-05 11:03 | 44.78438 | -0.03666 | 37950 ft | 453 kts | 333° |
| 2026-05-05 11:03 | 44.84206 | -0.07224 | 37950 ft | 453 kts | 333° |
| 2026-05-05 11:04 | 44.89974 | -0.10788 | 37950 ft | 453 kts | 333° |
| 2026-05-05 11:04 | 44.95700 | -0.14335 | 37952 ft | 452 kts | 333° |
| 2026-05-05 11:05 | 45.01461 | -0.17912 | 37952 ft | 452 kts | 333° |
| 2026-05-05 11:05 | 45.07222 | -0.21497 | 37949 ft | 452 kts | 333° |
| 2026-05-05 11:06 | 45.12983 | -0.25090 | 37947 ft | 452 kts | 333° |
| 2026-05-05 11:06 | 45.18742 | -0.28689 | 37948 ft | 453 kts | 333° |
| 2026-05-05 11:07 | 45.24499 | -0.32296 | 37948 ft | 452 kts | 334° |
| 2026-05-05 11:07 | 45.30242 | -0.35900 | 37948 ft | 451 kts | 334° |
| 2026-05-05 11:08 | 45.35982 | -0.39512 | 37952 ft | 451 kts | 334° |
| 2026-05-05 11:08 | 45.41718 | -0.43130 | 37938 ft | 451 kts | 334° |
| 2026-05-05 11:09 | 45.47453 | -0.46754 | 37944 ft | 451 kts | 334° |
| 2026-05-05 11:09 | 45.53184 | -0.50383 | 37941 ft | 451 kts | 334° |
| 2026-05-05 11:10 | 45.58915 | -0.54021 | 37942 ft | 451 kts | 334° |
| 2026-05-05 11:10 | 45.64660 | -0.57677 | 37935 ft | 453 kts | 334° |
| 2026-05-05 11:11 | 45.70416 | -0.61348 | 37926 ft | 453 kts | 334° |
| 2026-05-05 11:11 | 45.76175 | -0.65028 | 37928 ft | 453 kts | 334° |
| 2026-05-05 11:12 | 45.81928 | -0.68714 | 37919 ft | 453 kts | 334° |
| 2026-05-05 11:12 | 45.87692 | -0.72415 | 37911 ft | 454 kts | 334° |
| 2026-05-05 11:13 | 45.93454 | -0.76123 | 37908 ft | 454 kts | 334° |
| 2026-05-05 11:13 | 45.99178 | -0.79815 | 37917 ft | 454 kts | 334° |
| 2026-05-05 11:14 | 46.04935 | -0.83536 | 37906 ft | 453 kts | 334° |
| 2026-05-05 11:14 | 46.10724 | -0.87286 | 37902 ft | 453 kts | 334° |
| 2026-05-05 11:15 | 46.16434 | -0.90995 | 37904 ft | 453 kts | 334° |
| 2026-05-05 11:15 | 46.21993 | -0.95226 | 37907 ft | 450 kts | 322° |
| 2026-05-05 11:16 | 46.26999 | -1.00647 | 37908 ft | 450 kts | 320° |
| 2026-05-05 11:16 | 46.31893 | -1.06305 | 37907 ft | 450 kts | 319° |
| 2026-05-05 11:17 | 46.36760 | -1.12008 | 37908 ft | 450 kts | 319° |
| 2026-05-05 11:17 | 46.41636 | -1.17708 | 37902 ft | 451 kts | 319° |
| 2026-05-05 11:18 | 46.46522 | -1.23412 | 37906 ft | 451 kts | 319° |
| 2026-05-05 11:18 | 46.51409 | -1.29123 | 37907 ft | 451 kts | 319° |
| 2026-05-05 11:19 | 46.56292 | -1.34843 | 37915 ft | 450 kts | 320° |
| 2026-05-05 11:19 | 46.61452 | -1.40008 | 37913 ft | 452 kts | 330° |
| 2026-05-05 11:20 | 46.67055 | -1.44211 | 37909 ft | 454 kts | 333° |
| 2026-05-05 11:20 | 46.72729 | -1.48225 | 37914 ft | 453 kts | 333° |
| 2026-05-05 11:21 | 46.78416 | -1.52225 | 37908 ft | 454 kts | 333° |
| 2026-05-05 11:21 | 46.84105 | -1.56213 | 37907 ft | 454 kts | 337° |
| 2026-05-05 11:22 | 46.90204 | -1.58519 | 37911 ft | 455 kts | 352° |
| 2026-05-05 11:22 | 46.96470 | -1.59409 | 37909 ft | 456 kts | 355° |
| 2026-05-05 11:23 | 47.02801 | -1.60019 | 37902 ft | 456 kts | 356° |
| 2026-05-05 11:23 | 47.09138 | -1.60608 | 37900 ft | 456 kts | 356° |
| 2026-05-05 11:24 | 47.15509 | -1.61239 | 37912 ft | 456 kts | 355° |
| 2026-05-05 11:24 | 47.21785 | -1.62011 | 37912 ft | 456 kts | 354° |
| 2026-05-05 11:25 | 47.28091 | -1.62883 | 37910 ft | 455 kts | 354° |
| 2026-05-05 11:25 | 47.34394 | -1.63757 | 37903 ft | 454 kts | 354° |
| 2026-05-05 11:26 | 47.40691 | -1.64645 | 37904 ft | 454 kts | 354° |
| 2026-05-05 11:26 | 47.45914 | -1.65392 | 37901 ft | 454 kts | 354° |
| 2026-05-05 11:27 | 47.52193 | -1.66290 | 37895 ft | 453 kts | 354° |
| 2026-05-05 11:27 | 47.58475 | -1.67187 | 37891 ft | 453 kts | 354° |
| 2026-05-05 11:28 | 47.64756 | -1.68084 | 37896 ft | 454 kts | 354° |
| 2026-05-05 11:28 | 47.71049 | -1.68985 | 37900 ft | 455 kts | 354° |
| 2026-05-05 11:29 | 47.77346 | -1.69890 | 37899 ft | 454 kts | 354° |
| 2026-05-05 11:29 | 47.83640 | -1.70797 | 37900 ft | 454 kts | 354° |
| 2026-05-05 11:30 | 47.89913 | -1.71702 | 37910 ft | 453 kts | 354° |
| 2026-05-05 11:30 | 47.96191 | -1.72610 | 37914 ft | 453 kts | 354° |
| 2026-05-05 11:31 | 48.02470 | -1.73521 | 37913 ft | 453 kts | 354° |
| 2026-05-05 11:31 | 48.08757 | -1.74137 | 37907 ft | 452 kts | 359° |
| 2026-05-05 11:32 | 48.15052 | -1.74295 | 37914 ft | 453 kts | 360° |
| 2026-05-05 11:32 | 48.21347 | -1.74366 | 37912 ft | 453 kts | 360° |
| 2026-05-05 11:33 | 48.27646 | -1.74426 | 37914 ft | 453 kts | 0° |
| 2026-05-05 11:33 | 48.33946 | -1.74495 | 37915 ft | 453 kts | 0° |
| 2026-05-05 11:34 | 48.40254 | -1.74571 | 37918 ft | 453 kts | 0° |
| 2026-05-05 11:34 | 48.46558 | -1.74650 | 37923 ft | 453 kts | 360° |
| 2026-05-05 11:35 | 48.52816 | -1.74728 | 37922 ft | 453 kts | 360° |
| 2026-05-05 11:35 | 48.59113 | -1.74803 | 37934 ft | 453 kts | 0° |
| 2026-05-05 11:36 | 48.65414 | -1.74880 | 37930 ft | 453 kts | 360° |
| 2026-05-05 11:36 | 48.71733 | -1.74956 | 37933 ft | 454 kts | 360° |
| 2026-05-05 11:37 | 48.78068 | -1.75034 | 37932 ft | 455 kts | 360° |
| 2026-05-05 11:37 | 48.84397 | -1.75113 | 37942 ft | 455 kts | 360° |
| 2026-05-05 11:38 | 48.90720 | -1.75186 | 37928 ft | 455 kts | 0° |
| 2026-05-05 11:38 | 48.97037 | -1.75045 | 37939 ft | 454 kts | 2° |
| 2026-05-05 11:39 | 49.03356 | -1.74770 | 37938 ft | 454 kts | 2° |
| 2026-05-05 11:39 | 49.09672 | -1.74495 | 37940 ft | 454 kts | 2° |
| 2026-05-05 11:40 | 49.16003 | -1.74242 | 37941 ft | 456 kts | 1° |
| 2026-05-05 11:40 | 49.22354 | -1.73997 | 37953 ft | 457 kts | 1° |
| 2026-05-05 11:41 | 49.28702 | -1.73754 | 37947 ft | 456 kts | 2° |
| 2026-05-05 11:41 | 49.35041 | -1.73512 | 37954 ft | 455 kts | 1° |
| 2026-05-05 11:42 | 49.41370 | -1.73269 | 37953 ft | 455 kts | 1° |
| 2026-05-05 11:42 | 49.47704 | -1.73024 | 37960 ft | 455 kts | 1° |
| 2026-05-05 11:43 | 49.54034 | -1.72777 | 37960 ft | 455 kts | 1° |
| 2026-05-05 11:43 | 49.60294 | -1.71855 | 37966 ft | 451 kts | 14° |
| 2026-05-05 11:44 | 49.66246 | -1.69040 | 37966 ft | 451 kts | 19° |
| 2026-05-05 11:44 | 49.72163 | -1.65800 | 37968 ft | 451 kts | 20° |
| 2026-05-05 11:45 | 49.78098 | -1.62455 | 37967 ft | 450 kts | 20° |
| 2026-05-05 11:45 | 49.83929 | -1.59185 | 37967 ft | 448 kts | 20° |
| 2026-05-05 11:46 | 49.89801 | -1.55910 | 37965 ft | 449 kts | 20° |
| 2026-05-05 11:46 | 49.95674 | -1.52634 | 37965 ft | 449 kts | 20° |
| 2026-05-05 11:47 | 50.01553 | -1.49408 | 37969 ft | 447 kts | 18° |
| 2026-05-05 11:47 | 50.07487 | -1.46472 | 37800 ft | 452 kts | 17° |
| 2026-05-05 11:47 | 50.10448 | -1.44799 | 37089 ft | 455 kts | 25° |
| 2026-05-05 11:48 | 50.16035 | -1.39950 | 34937 ft | 464 kts | 32° |
| 2026-05-05 11:48 | 50.18792 | -1.37281 | 33949 ft | 467 kts | 32° |
| 2026-05-05 11:48 | 50.21541 | -1.34599 | 33026 ft | 465 kts | 33° |
| 2026-05-05 11:49 | 50.24258 | -1.31941 | 32284 ft | 458 kts | 33° |
| 2026-05-05 11:49 | 50.26944 | -1.29311 | 31584 ft | 452 kts | 33° |
| 2026-05-05 11:49 | 50.29589 | -1.26718 | 30780 ft | 448 kts | 34° |
| 2026-05-05 11:49 | 50.32223 | -1.24131 | 29872 ft | 446 kts | 34° |
| 2026-05-05 11:50 | 50.34853 | -1.21545 | 28769 ft | 447 kts | 34° |
| 2026-05-05 11:50 | 50.37484 | -1.18953 | 27701 ft | 447 kts | 33° |
| 2026-05-05 11:50 | 50.40110 | -1.16364 | 26668 ft | 445 kts | 33° |
| 2026-05-05 11:50 | 50.42730 | -1.13779 | 25672 ft | 444 kts | 33° |
| 2026-05-05 11:51 | 50.45335 | -1.11204 | 24701 ft | 442 kts | 33° |
| 2026-05-05 11:51 | 50.47924 | -1.08642 | 23759 ft | 439 kts | 33° |
| 2026-05-05 11:51 | 50.50500 | -1.06089 | 22668 ft | 437 kts | 33° |
| 2026-05-05 11:51 | 50.53063 | -1.03548 | 21553 ft | 434 kts | 33° |
| 2026-05-05 11:52 | 50.55602 | -1.01026 | 20476 ft | 430 kts | 33° |
| 2026-05-05 11:52 | 50.58113 | -0.98528 | 19433 ft | 425 kts | 33° |
| 2026-05-05 11:52 | 50.60596 | -0.96056 | 18424 ft | 419 kts | 33° |
| 2026-05-05 11:52 | 50.63041 | -0.93617 | 17319 ft | 413 kts | 32° |
| 2026-05-05 11:53 | 50.65450 | -0.91213 | 16217 ft | 407 kts | 33° |
| 2026-05-05 11:53 | 50.67824 | -0.88840 | 15160 ft | 401 kts | 33° |
| 2026-05-05 11:53 | 50.70160 | -0.86502 | 14141 ft | 395 kts | 33° |
| 2026-05-05 11:53 | 50.72410 | -0.84080 | 13063 ft | 388 kts | 39° |
| 2026-05-05 11:54 | 50.74313 | -0.81145 | 12323 ft | 375 kts | 51° |
| 2026-05-05 11:54 | 50.75655 | -0.77791 | 12066 ft | 351 kts | 65° |
| 2026-05-05 11:54 | 50.76516 | -0.74317 | 11832 ft | 329 kts | 71° |
| 2026-05-05 11:54 | 50.77207 | -0.70981 | 11593 ft | 310 kts | 72° |
| 2026-05-05 11:55 | 50.77828 | -0.67809 | 11352 ft | 294 kts | 72° |
| 2026-05-05 11:55 | 50.78414 | -0.64757 | 11110 ft | 289 kts | 73° |
| 2026-05-05 11:55 | 50.78990 | -0.61722 | 10865 ft | 288 kts | 73° |
| 2026-05-05 11:55 | 50.79561 | -0.58698 | 10635 ft | 287 kts | 73° |
| 2026-05-05 11:56 | 50.80128 | -0.55685 | 10390 ft | 287 kts | 73° |
| 2026-05-05 11:56 | 50.80697 | -0.52649 | 10144 ft | 286 kts | 73° |
| 2026-05-05 11:56 | 50.81260 | -0.49635 | 9909 ft | 286 kts | 73° |
| 2026-05-05 11:56 | 50.81822 | -0.46625 | 9648 ft | 285 kts | 73° |
| 2026-05-05 11:57 | 50.82382 | -0.43618 | 9384 ft | 284 kts | 73° |
| 2026-05-05 11:57 | 50.82937 | -0.40629 | 9120 ft | 283 kts | 73° |
| 2026-05-05 11:57 | 50.83489 | -0.37654 | 8861 ft | 282 kts | 73° |
| 2026-05-05 11:57 | 50.84040 | -0.34682 | 8600 ft | 281 kts | 73° |
| 2026-05-05 11:58 | 50.84586 | -0.31728 | 8353 ft | 277 kts | 73° |
| 2026-05-05 11:58 | 50.85115 | -0.28860 | 8224 ft | 266 kts | 73° |
| 2026-05-05 11:58 | 50.85622 | -0.26114 | 8100 ft | 254 kts | 73° |
| 2026-05-05 11:58 | 50.86111 | -0.23485 | 7990 ft | 245 kts | 73° |
| 2026-05-05 11:59 | 50.86592 | -0.20918 | 7895 ft | 243 kts | 73° |
| 2026-05-05 11:59 | 50.87075 | -0.18351 | 7802 ft | 243 kts | 72° |
| 2026-05-05 11:59 | 50.87554 | -0.15783 | 7697 ft | 243 kts | 73° |
| 2026-05-05 11:59 | 50.88031 | -0.13243 | 7644 ft | 239 kts | 73° |
| 2026-05-05 12:00 | 50.88773 | -0.10912 | 7540 ft | 239 kts | 49° |
| 2026-05-05 12:00 | 50.90155 | -0.09491 | 7447 ft | 240 kts | 18° |
| 2026-05-05 12:00 | 50.91790 | -0.09403 | 7342 ft | 243 kts | 347° |
| 2026-05-05 12:00 | 50.93260 | -0.10685 | 7243 ft | 245 kts | 316° |
| 2026-05-05 12:01 | 50.94184 | -0.12941 | 7138 ft | 246 kts | 295° |
| 2026-05-05 12:01 | 50.94830 | -0.15456 | 6697 ft | 247 kts | 291° |
| 2026-05-05 12:01 | 50.95431 | -0.17990 | 6248 ft | 245 kts | 291° |
| 2026-05-05 12:01 | 50.96021 | -0.20508 | 5758 ft | 243 kts | 291° |
| 2026-05-05 12:02 | 50.96596 | -0.23026 | 5299 ft | 242 kts | 291° |
| 2026-05-05 12:02 | 50.97159 | -0.25542 | 4838 ft | 242 kts | 291° |
| 2026-05-05 12:02 | 50.97717 | -0.28058 | 4379 ft | 242 kts | 291° |
| 2026-05-05 12:02 | 50.98252 | -0.30562 | 4016 ft | 237 kts | 291° |
| 2026-05-05 12:03 | 50.98760 | -0.33029 | 3614 ft | 234 kts | 290° |
| 2026-05-05 12:03 | 50.99263 | -0.35467 | 3210 ft | 231 kts | 291° |
| 2026-05-05 12:03 | 50.99751 | -0.37873 | 2990 ft | 229 kts | 291° |
| 2026-05-05 12:03 | 51.00228 | -0.40298 | 2975 ft | 230 kts | 290° |
| 2026-05-05 12:04 | 51.00750 | -0.42692 | 2972 ft | 228 kts | 300° |
| 2026-05-05 12:04 | 51.01792 | -0.44484 | 2980 ft | 220 kts | 330° |
| 2026-05-05 12:04 | 51.03164 | -0.45552 | 2994 ft | 220 kts | 339° |
| 2026-05-05 12:04 | 51.04590 | -0.46457 | 2994 ft | 220 kts | 340° |
| 2026-05-05 12:05 | 51.06007 | -0.47345 | 2993 ft | 219 kts | 341° |
| 2026-05-05 12:05 | 51.07424 | -0.48230 | 2996 ft | 219 kts | 341° |
| 2026-05-05 12:05 | 51.08842 | -0.49116 | 2991 ft | 218 kts | 340° |
| 2026-05-05 12:05 | 51.10259 | -0.49989 | 2991 ft | 218 kts | 340° |
| 2026-05-05 12:06 | 51.11675 | -0.50854 | 2993 ft | 219 kts | 341° |
| 2026-05-05 12:06 | 51.13059 | -0.51711 | 3001 ft | 208 kts | 341° |
| 2026-05-05 12:06 | 51.14387 | -0.52548 | 2993 ft | 202 kts | 340° |
| 2026-05-05 12:06 | 51.15681 | -0.53364 | 2990 ft | 198 kts | 341° |
| 2026-05-05 12:07 | 51.16996 | -0.53943 | 2988 ft | 195 kts | 1° |
| 2026-05-05 12:07 | 51.18253 | -0.53271 | 2993 ft | 194 kts | 38° |
| 2026-05-05 12:07 | 51.18983 | -0.51477 | 2973 ft | 198 kts | 73° |
| 2026-05-05 12:07 | 51.18931 | -0.49263 | 2580 ft | 206 kts | 104° |
| 2026-05-05 12:08 | 51.18376 | -0.47151 | 2210 ft | 207 kts | 110° |
| 2026-05-05 12:08 | 51.17782 | -0.45090 | 2011 ft | 198 kts | 111° |
| 2026-05-05 12:08 | 51.17224 | -0.43173 | 1994 ft | 187 kts | 111° |
| 2026-05-05 12:08 | 51.16694 | -0.41297 | 2011 ft | 185 kts | 110° |
| 2026-05-05 12:09 | 51.16162 | -0.39427 | 1997 ft | 186 kts | 111° |
| 2026-05-05 12:09 | 51.15624 | -0.37549 | 1996 ft | 187 kts | 110° |
| 2026-05-05 12:09 | 51.15075 | -0.35678 | 1991 ft | 186 kts | 111° |
| 2026-05-05 12:09 | 51.14440 | -0.33876 | 1948 ft | 187 kts | 117° |
| 2026-05-05 12:10 | 51.13762 | -0.32082 | 1502 ft | 191 kts | 110° |
| 2026-05-05 12:10 | 51.13512 | -0.30085 | 1222 ft | 179 kts | 92° |
| 2026-05-05 12:10 | 51.13525 | -0.28135 | 1087 ft | 174 kts | 75° |
| 2026-05-05 12:10 | 51.13811 | -0.26387 | 951 ft | 157 kts | 71° |
| 2026-05-05 12:11 | 51.14006 | -0.24815 | 827 ft | 136 kts | 72° |
| 2026-05-05 12:11 | 51.14213 | -0.23390 | 629 ft | 127 kts | 73° |
| 2026-05-05 12:11 | 51.14401 | -0.22030 | 447 ft | 126 kts | 75° |
| 2026-05-05 12:11 | 51.14528 | -0.21112 | 325 ft | 125 kts | 75° |
| 2026-05-05 12:12 | 51.14771 | -0.19388 | 216 ft | 103 kts | 78° |
| 2026-05-05 12:12 | 51.14869 | -0.18679 | 212 ft | 46 kts | 69° |
| 2026-05-05 12:12 | 51.15042 | -0.18321 | 211 ft | 28 kts | 47° |
| 2026-05-05 12:12 | 51.15059 | -0.18288 | 207 ft | 0 kts | 52° |
| 2026-05-05 12:15 | 51.15074 | -0.18257 | 215 ft | 7 kts | 52° |
| 2026-05-05 12:15 | 51.15119 | -0.18198 | 213 ft | 10 kts | 13° |
| 2026-05-05 12:15 | 51.15193 | -0.18178 | 212 ft | 12 kts | 45° |
| 2026-05-05 12:15 | 51.15223 | -0.18036 | 214 ft | 16 kts | 77° |
| 2026-05-05 12:16 | 51.15249 | -0.17850 | 214 ft | 19 kts | 77° |
| 2026-05-05 12:16 | 51.15279 | -0.17629 | 212 ft | 21 kts | 77° |
| 2026-05-05 12:16 | 51.15311 | -0.17396 | 215 ft | 20 kts | 51° |
| 2026-05-05 12:16 | 51.15446 | -0.17404 | 217 ft | 22 kts | 351° |
| 2026-05-05 12:17 | 51.15598 | -0.17459 | 211 ft | 21 kts | 348° |
| 2026-05-05 12:17 | 51.15725 | -0.17503 | 212 ft | 17 kts | 354° |
| 2026-05-05 12:17 | 51.15787 | -0.17415 | 210 ft | 7 kts | 16° |
| 2026-05-05 12:17 | 51.15843 | -0.17430 | 218 ft | 8 kts | 348° |
| 2026-05-05 12:18 | 51.15854 | -0.17434 | 215 ft | 0 kts | 348° |